»·PEaware :: QFA576 YPAD-YSSY

QFA576 :: YPAD-YSSY

FLIGHT INFORMATION

Flight Status: Arrived
Operator:
Qantas Airways
More flights by this operator :: More flights under this callsign
Pilot: Merv A. (1555)
Aircraft: BOEING 737-700
(B737)
More flights by this aircraft type
Origin: YPAD Adelaide Intl
Australia
Destination: YSSY Kingsford Smith Intl
Australia
More flights between these airports :: More routes between these airports
Route: DCT PANKI H247 CULIN Y59 TESAT
File this flight plan on PilotEdge
Remarks: RMK / FightAware, P3D user
Altitude:
(Current/Filed)
37,000ft
Speed:
(Current/Filed)
440kts
Departed: 05-Feb-17 12:09 AM
Arrived: 05-Feb-17 01:44 AM
Distance/Time
Traveled:
628nm/1:35
Distance/Time
To Go:
Arrived

Flight Plot

Page will automatically refresh every two minutes.

Flight plan parsing failed; only flown route is shown


Map Options




Map Legend


Flown Route
Filed Route
Departure Airport
Arrival Airport
Navaid (VOR, NDB)
Fix

Horizontal Profiles

Position Reports

Time Latitude Longitude Heading Altitude Ground
Speed
04-Feb-17 23:53 -34.940118 138.537442 321 27ft 0kts
04-Feb-17 23:54 -34.940118 138.537442 321 27ft 0kts
04-Feb-17 23:55 -34.940118 138.537442 321 27ft 0kts
04-Feb-17 23:56 -34.940118 138.537442 321 27ft 0kts
04-Feb-17 23:57 -34.940118 138.537442 321 27ft 0kts
04-Feb-17 23:58 -34.940118 138.537442 321 27ft 0kts
04-Feb-17 23:59 -34.940118 138.537442 321 27ft 0kts
05-Feb-17 00:00 -34.940118 138.537442 321 27ft 0kts
05-Feb-17 00:01 -34.940418 138.537714 327 27ft 2kts
05-Feb-17 00:02 -34.940937 138.537848 50 27ft 0kts
05-Feb-17 00:03 -34.940943 138.537841 50 27ft 0kts
05-Feb-17 00:04 -34.940866 138.537956 50 27ft 2kts
05-Feb-17 00:05 -34.940761 138.539784 60 27ft 9kts
05-Feb-17 00:06 -34.939586 138.542023 119 27ft 7kts
05-Feb-17 00:07 -34.940003 138.542509 139 27ft 2kts
05-Feb-17 00:08 -34.941057 138.542765 228 27ft 0kts
05-Feb-17 00:09 -34.957817 138.517908 232 459ft 177kts
05-Feb-17 00:10 -34.989891 138.471239 232 2911ft 199kts
05-Feb-17 00:11 -35.037626 138.419010 193 4543ft 271kts
05-Feb-17 00:12 -35.101768 138.470004 111 7125ft 312kts
05-Feb-17 00:13 -35.101971 138.576357 81 9693ft 323kts
05-Feb-17 00:14 -35.094389 138.692092 82 11322ft 371kts
05-Feb-17 00:15 -35.085802 138.825443 82 13019ft 406kts
05-Feb-17 00:16 -35.076668 138.965860 82 15267ft 422kts
05-Feb-17 00:17 -35.067006 139.110517 82 17409ft 436kts
05-Feb-17 00:18 -35.056731 139.260673 81 19360ft 449kts
05-Feb-17 00:19 -35.045931 139.413937 81 21108ft 461kts
05-Feb-17 00:20 -35.034569 139.571913 81 22661ft 471kts
05-Feb-17 00:21 -35.023197 139.732849 81 24004ft 481kts
05-Feb-17 00:22 -35.011346 139.896972 80 25190ft 491kts
05-Feb-17 00:23 -34.999131 140.064441 80 26307ft 499kts
05-Feb-17 00:24 -34.986175 140.233364 80 27332ft 506kts
05-Feb-17 00:25 -34.975982 140.405834 86 28235ft 517kts
05-Feb-17 00:26 -34.978145 140.582853 87 29065ft 525kts
05-Feb-17 00:27 -34.979383 140.761759 86 30012ft 527kts
05-Feb-17 00:28 -34.980750 140.939798 86 31155ft 525kts
05-Feb-17 00:29 -34.981505 141.117497 86 32268ft 524kts
05-Feb-17 00:30 -34.981871 141.294684 87 33384ft 522kts
05-Feb-17 00:31 -34.981981 141.471469 87 34420ft 522kts
05-Feb-17 00:32 -34.981816 141.647724 87 35379ft 522kts
05-Feb-17 00:33 -34.981393 141.825209 87 36312ft 522kts
05-Feb-17 00:34 -34.980712 142.002892 87 36830ft 525kts
05-Feb-17 00:35 -34.979780 142.178939 87 36835ft 519kts
05-Feb-17 00:36 -34.978589 142.355519 87 36834ft 519kts
05-Feb-17 00:37 -34.977150 142.531250 87 36832ft 519kts
05-Feb-17 00:38 -34.975465 142.706934 87 36829ft 518kts
05-Feb-17 00:39 -34.973702 142.882338 87 36828ft 518kts
05-Feb-17 00:40 -34.971616 143.058107 87 36824ft 517kts
05-Feb-17 00:41 -34.969653 143.233235 87 36820ft 517kts
05-Feb-17 00:42 -34.967768 143.408654 87 36814ft 516kts
05-Feb-17 00:43 -34.966004 143.582859 87 36808ft 516kts
05-Feb-17 00:44 -34.964381 143.757476 87 36802ft 515kts
05-Feb-17 00:45 -34.962874 143.931945 87 36812ft 515kts
05-Feb-17 00:46 -34.961445 144.106319 87 36807ft 513kts
05-Feb-17 00:47 -34.960042 144.280486 87 36803ft 513kts
05-Feb-17 00:48 -34.958808 144.454095 87 36798ft 513kts
05-Feb-17 00:49 -34.957686 144.627674 87 36794ft 513kts
05-Feb-17 00:50 -34.956728 144.801297 87 36789ft 513kts
05-Feb-17 00:51 -34.955942 144.975517 87 36781ft 513kts
05-Feb-17 00:52 -34.955511 145.149435 87 36776ft 512kts
05-Feb-17 00:53 -34.955191 145.322115 87 36772ft 512kts
05-Feb-17 00:54 -34.952643 145.495225 86 36768ft 511kts
05-Feb-17 00:55 -34.948026 145.667996 85 36763ft 510kts
05-Feb-17 00:56 -34.939910 145.840338 84 36761ft 510kts
05-Feb-17 00:57 -34.932010 146.013293 85 36760ft 509kts
05-Feb-17 00:58 -34.924831 146.184119 84 36751ft 507kts
05-Feb-17 00:59 -34.917144 146.356012 84 36757ft 507kts
05-Feb-17 01:00 -34.909160 146.527844 84 36758ft 506kts
05-Feb-17 01:01 -34.900987 146.698171 84 36760ft 506kts
05-Feb-17 01:02 -34.892516 146.869696 84 36761ft 505kts
05-Feb-17 01:03 -34.883846 147.040294 84 36762ft 505kts
05-Feb-17 01:04 -34.874915 147.211133 84 36761ft 504kts
05-Feb-17 01:05 -34.865813 147.380542 84 36760ft 503kts
05-Feb-17 01:06 -34.856452 147.550901 84 36763ft 502kts
05-Feb-17 01:07 -34.846890 147.720316 84 36768ft 501kts
05-Feb-17 01:08 -34.837101 147.889534 84 36778ft 502kts
05-Feb-17 01:09 -34.827089 148.058492 84 36792ft 499kts
05-Feb-17 01:10 -34.816857 148.227265 84 36808ft 499kts
05-Feb-17 01:11 -34.806467 148.394782 84 36776ft 499kts
05-Feb-17 01:12 -34.795788 148.563183 84 36843ft 498kts
05-Feb-17 01:13 -34.784905 148.731124 84 35749ft 502kts
05-Feb-17 01:14 -34.773743 148.899778 84 33594ft 500kts
05-Feb-17 01:15 -34.762526 149.069057 84 31398ft 505kts
05-Feb-17 01:16 -34.750643 149.240344 83 29195ft 509kts
05-Feb-17 01:17 -34.729481 149.407709 68 27076ft 490kts
05-Feb-17 01:18 -34.670198 149.551274 58 25253ft 464kts
05-Feb-17 01:19 -34.610237 149.687643 58 23454ft 451kts
05-Feb-17 01:20 -34.552389 149.818986 58 21990ft 429kts
05-Feb-17 01:21 -34.496802 149.944809 57 20209ft 414kts
05-Feb-17 01:22 -34.443293 150.065363 57 18455ft 401kts
05-Feb-17 01:23 -34.391483 150.182651 58 16719ft 390kts
05-Feb-17 01:24 -34.341547 150.294583 57 15561ft 366kts
05-Feb-17 01:25 -34.293650 150.401477 57 14082ft 356kts
05-Feb-17 01:26 -34.247954 150.503759 58 12992ft 340kts
05-Feb-17 01:27 -34.203698 150.602805 58 11647ft 333kts
05-Feb-17 01:28 -34.161086 150.697364 57 10791ft 310kts
05-Feb-17 01:29 -34.120190 150.788158 58 9146ft 310kts
05-Feb-17 01:30 -34.080345 150.876684 58 8496ft 291kts
05-Feb-17 01:31 -34.043623 150.958002 58 7718ft 261kts
05-Feb-17 01:32 -34.042598 151.035919 135 6905ft 255kts
05-Feb-17 01:33 -34.100109 151.082438 166 6149ft 246kts
05-Feb-17 01:34 -34.166462 151.099661 169 5054ft 238kts
05-Feb-17 01:35 -34.227319 151.114579 168 4089ft 216kts
05-Feb-17 01:36 -34.263659 151.156825 79 4002ft 209kts
05-Feb-17 01:37 -34.249758 151.225056 50 3969ft 206kts
05-Feb-17 01:38 -34.197456 151.243280 347 4000ft 202kts
05-Feb-17 01:39 -34.142252 151.227118 347 3525ft 201kts
05-Feb-17 01:40 -34.090748 151.213568 349 2521ft 185kts
05-Feb-17 01:41 -34.042272 151.200942 351 1574ft 162kts
05-Feb-17 01:42 -34.000238 151.189970 351 738ft 150kts
05-Feb-17 01:43 -33.960592 151.179697 350 30ft 136kts
05-Feb-17 01:44 -33.945945 151.176601 10 29ft 14kts
05-Feb-17 01:45 -33.944517 151.177068 17 29ft 1kts
05-Feb-17 01:46 -33.942983 151.177242 346 29ft 10kts
05-Feb-17 01:47 -33.939559 151.176244 348 29ft 14kts
05-Feb-17 01:48 -33.935826 151.175296 348 29ft 12kts
05-Feb-17 01:49 -33.933257 151.175744 359 29ft 8kts
05-Feb-17 01:50 -33.930523 151.175328 21 29ft 10kts
05-Feb-17 01:51 -33.930608 151.177984 99 29ft 8kts
05-Feb-17 01:52 -33.931348 151.179745 195 29ft 3kts
05-Feb-17 01:53 -33.931590 151.179680 190 29ft 0kts
05-Feb-17 01:54 -33.931590 151.179680 190 29ft 0kts
05-Feb-17 01:55 -33.931590 151.179680 190 29ft 0kts

Navigation Log

Ident Type
Flight plan parsing failed, navigation log unavailable